Jordan Valley, OR

5:26 PM MST on December 04, 2016 (GMT -0700)
Rome State | | Change Station

Elev 4049 ft 42.59 °N, 117.86 °W | Updated 34 minutes ago

Unknown
N/A
51 °F
Feels Like 51 °F
N
20
Wind Variable Wind from SW
Gusts 29 mph

Today
High -- | Low -- °F
--% Chance of Precip.
Yesterday
High -- | Low -- °F
Precip. -- in
Pressure 29.81 in
Visibility -9999.0 miles
Clouds
Dew Point 29 °F
Humidity 43%
Rainfall 0.00 in
Snow Depth Not available.
8:05 AM 5:18 PM
Waxing Crescent, 26% visible
METAR KREO 042352Z AUTO 22017G25KT 11/M02 A2981 RMK AO1 PK WND 23032/2259 SLP093 T01061017 10122 20078 56015 $
Pressure 29.81 in
Visibility -9999.0 miles
Clouds
Dew Point 29 °F
Humidity 43%
Rainfall 0.00 in
Snow Depth Not available.
8:05 AM 5:18 PM
Waxing Crescent, 26% visible
METAR KREO 042352Z AUTO 22017G25KT 11/M02 A2981 RMK AO1 PK WND 23032/2259 SLP093 T01061017 10122 20078 56015 $

10-Day Weather Forecast

Almanac

Astronomy

Dec. 04, 2016 Rise Set
Actual Time
Civil Twilight
Nautical Twilight
Astronomical Twilight
Moon
Length of Visible Light
Length of Day
Tomorrow will be .
, % of the Moon is Illuminated

Today's Extremes

State Highs State Lows

Community

WunderPhotos

Upload Photos

1,955,724 photos uploaded!

WunderBlog® & News

Nearby

Air Quality

  Air Quality AQ Index Pollutant
Not available.

Snow Depth

Station Depth Elevation

Earthquake Activity

City Distance Mag. Time & Date
Minimum magnitude displayed is 2.5.

Coastal Water Temperatures

Place Temperature

Stations

Nearby Weather Stations

Station Location Temp. Windchill Dew Point Humidity Wind Precip. Elev Updated Type
                   

Watches & Warnings

There are currently no watches in effect.